Ko Samui, Thaïlande

08:37 ICT le 28 février 2017 (GMT +0700)
Samui | | Change Station

Alt. 56 ft 9.55 °N, 100.07 °E | Updated 7 minutes ago

Ciel dégagé
Ciel dégagé
84 ° F
Paraît 92 ° F
N
15
Vent Variable Vent de SE

Aujourd'hui
Haut(e) -- | Bas -- ° F
--% Risque de précip.
Hier
Haut(e) -- | Bas -- ° F
Precip. -- pouce
Pression 29.89 pouce
Visibilité 5.0 Miles terrestres
Nuages Peu 2000 ft
indice de chaleur 92 ° F
Point de rosée 75 ° F
Humidité 74%
Précipitations 0.00 pouce
Profondeur de la couche neigeuse Non disponible.
6:34 AM 6:30 PM
Lune montante, 3% visible
METAR VTSM 280130Z 14013KT 8000 FEW020 29/24 Q1012
Pression 29.89 pouce
Visibilité 5.0 Miles terrestres
Nuages Peu 2000 ft
indice de chaleur 92 ° F
Point de rosée 75 ° F
Humidité 74%
Précipitations 0.00 pouce
Profondeur de la couche neigeuse Non disponible.
6:34 AM 6:30 PM
Lune montante, 3% visible
METAR VTSM 280130Z 14013KT 8000 FEW020 29/24 Q1012

Get Your Daily Forecast Email!

Thanks for signing up!

Be on the lookout for a verification email in your inbox.

You'll start receiving the daily forecast at 8 AM.

×

10-Day Weather Forecast

No radar image for this location.
×

Almanac

Astronomie

Feb. 28, 2017 Lever Coucher
Temps réel
Crépuscule civil
Crépuscule nautique
Crépuscule astronomique
Lune
Durée de lumière visible
Longueur du jour
Tomorrow will be .
, % of the Moon is Illuminated

Extrêmes aujourd'hui

Country Highs Country Lows

Community

WunderPhotos

Upload Photos

1,962,540 Photos téléchargées !

WunderBlog® & News

Nearby

Qualité de l'air

  Qualité de l'air Indice de la qualité de l'air Polluant
Not available.

Épaisseur de neige

Station Depth Altitude

Activité sismique

Ville Distance Mag. Time & Date
Minimum magnitude displayed is 2.5.

Températures des eaux côtières

Lieu Température

Stations

Stations météo à proximité

Emplacement de la station Température Refroidissement éolien Point de rosée Humidité Vent Precip. Alt. Mise à jour Type